Time;durP1;ratioP1;P1;durP2;ratioP2;P2;SDS_P1;SDS_P2;PMS_P1;PMS_P2;Temp;Humidity;BMP_temperature;BMP_pressure;BME280_temperature;BME280_humidity;BME280_pressure;Samples;Min_cycle;Max_cycle;Signal;HPM_P1;HPM_P2
2021/07/21 00:00:18;;;;;;;;;;;;;;;22.15;55.04;101991.84;5015779;28;1036;-74
2021/07/21 00:02:43;;;;;;;;;;;;;;;22.15;54.72;101977.41;5007488;28;1848;-74
2021/07/21 00:05:08;;;;;;;;;;;;;;;22.13;55.17;101980.28;4995824;28;990;-74
2021/07/21 00:07:33;;;;;;;;;;;;;;;22.13;55.20;101990.28;4996308;28;1822;-74
2021/07/21 00:09:59;;;;;;;;;;;;;;;22.12;54.94;101988.56;4995922;28;858;-74
2021/07/21 00:15:09;;;;;;;;;;;;;;;22.09;55.16;101978.00;5004392;28;1993;-74
2021/07/21 00:17:35;;;;;;;;;;;;;;;22.08;54.89;101979.84;5015953;28;903;-74
2021/07/21 00:20:07;;;;;;;;;;;;;;;22.08;54.84;101990.72;5030530;28;1561;-75
2021/07/21 00:22:32;;;;;;;;;;;;;;;22.05;55.04;101985.56;5007265;28;1846;-74
2021/07/21 00:24:58;;;;;;;;;;;;;;;22.04;54.94;101986.56;5027326;28;1322;-74
2021/07/21 00:27:23;;;;;;;;;;;;;;;22.05;55.02;101991.00;5003696;28;1830;-74
2021/07/21 00:29:48;;;;;;;;;;;;;;;22.03;55.31;101986.75;5015147;28;870;-74
2021/07/21 00:32:13;;;;;;;;;;;;;;;22.02;55.25;101968.75;5015724;28;1005;-73
2021/07/21 00:34:38;;;;;;;;;;;;;;;22.02;55.26;101966.03;5030910;28;1945;-73
2021/07/21 00:37:04;;;;;;;;;;;;;;;22.00;55.40;101965.31;5015191;28;830;-74
2021/07/21 00:39:29;;;;;;;;;;;;;;;22.02;54.59;101966.03;5026428;28;2005;-74
2021/07/21 00:41:54;;;;;;;;;;;;;;;22.01;54.88;101965.16;5003878;28;1979;-74
2021/07/21 00:44:19;;;;;;;;;;;;;;;21.99;54.96;101964.44;4995453;28;958;-74
2021/07/21 00:46:44;;;;;;;;;;;;;;;21.96;55.06;101974.72;4995972;28;966;-75
2021/07/21 00:49:09;;;;;;;;;;;;;;;21.94;55.06;101976.72;4995375;28;803;-74
2021/07/21 00:51:34;;;;;;;;;;;;;;;21.95;55.25;101978.44;5033390;28;1966;-74
2021/07/21 00:53:59;;;;;;;;;;;;;;;21.92;54.89;101973.28;5015070;28;835;-74
2021/07/21 00:56:24;;;;;;;;;;;;;;;21.92;54.85;101976.00;5014883;28;2064;-74
2021/07/21 00:58:49;;;;;;;;;;;;;;;21.90;55.34;101972.56;5015385;28;1005;-74
2021/07/21 01:01:15;;;;;;;;;;;;;;;21.90;55.32;101980.72;5015112;28;903;-74
2021/07/21 01:03:40;;;;;;;;;;;;;;;21.88;55.25;101978.13;5007102;28;1855;-74
2021/07/21 01:06:05;;;;;;;;;;;;;;;21.89;55.27;101979.00;5026873;28;1200;-74
2021/07/21 01:08:30;;;;;;;;;;;;;;;21.89;55.24;101984.44;4995622;28;935;-74
2021/07/21 01:10:55;;;;;;;;;;;;;;;21.87;54.60;101990.00;4995218;28;839;-74
2021/07/21 01:13:20;;;;;;;;;;;;;;;21.87;54.88;101979.13;4995114;28;1073;-74
2021/07/21 01:15:45;;;;;;;;;;;;;;;21.85;55.12;101977.59;5003542;28;1945;-74
2021/07/21 01:18:10;;;;;;;;;;;;;;;21.85;55.29;101985.75;5029882;28;922;-74
2021/07/21 01:20:36;;;;;;;;;;;;;;;21.85;55.10;101985.75;5014879;28;1100;-74
2021/07/21 01:23:01;;;;;;;;;;;;;;;21.81;54.83;101985.16;5014702;28;938;-74
2021/07/21 01:25:26;;;;;;;;;;;;;;;21.80;54.86;101987.03;5028369;28;1885;-75
2021/07/21 01:27:51;;;;;;;;;;;;;;;21.79;55.05;101979.88;5029796;28;1338;-74
2021/07/21 01:30:16;;;;;;;;;;;;;;;21.79;54.77;101988.03;5014661;28;838;-74
2021/07/21 01:32:41;;;;;;;;;;;;;;;21.80;55.01;101986.16;5014613;28;864;-74
2021/07/21 01:35:06;;;;;;;;;;;;;;;21.78;54.76;101978.16;5006063;28;1910;-74
2021/07/21 01:37:31;;;;;;;;;;;;;;;21.76;55.10;101985.59;4995385;28;796;-74
2021/07/21 01:39:56;;;;;;;;;;;;;;;21.77;55.17;101975.59;4998774;28;843;-75
2021/07/21 01:42:21;;;;;;;;;;;;;;;21.76;55.35;101985.59;4998901;28;820;-75
2021/07/21 01:44:46;;;;;;;;;;;;;;;21.76;55.29;101979.31;5017011;28;1949;-75
2021/07/21 01:47:14;;;;;;;;;;;;;;;21.75;54.86;101978.47;5033674;28;1408;-74
2021/07/21 01:49:39;;;;;;;;;;;;;;;21.73;54.68;101983.16;5018554;28;901;-76
2021/07/21 01:52:04;;;;;;;;;;;;;;;21.71;55.32;101982.44;5018232;28;835;-76
2021/07/21 01:54:30;;;;;;;;;;;;;;;21.72;54.92;101983.31;5001841;28;2030;-75
2021/07/21 01:56:55;;;;;;;;;;;;;;;21.72;55.07;101983.31;5029841;28;1350;-76
2021/07/21 01:59:20;;;;;;;;;;;;;;;21.71;55.13;101979.75;4998449;28;903;-74
2021/07/21 02:01:45;;;;;;;;;;;;;;;21.70;54.88;101985.31;5004995;28;1881;-74
2021/07/21 02:04:10;;;;;;;;;;;;;;;21.69;54.86;101987.16;5017938;28;847;-75
2021/07/21 02:06:35;;;;;;;;;;;;;;;21.68;55.23;101980.03;5017813;28;1176;-73
2021/07/21 02:09:00;;;;;;;;;;;;;;;21.69;55.16;101984.44;5017953;28;1014;-74
2021/07/21 02:11:25;;;;;;;;;;;;;;;21.66;55.11;101983.91;5030933;28;1894;-74
2021/07/21 02:13:50;;;;;;;;;;;;;;;21.66;55.13;101983.91;4998171;28;990;-74
2021/07/21 02:16:15;;;;;;;;;;;;;;;21.64;55.35;101981.34;4997850;28;1914;-75
2021/07/21 02:18:40;;;;;;;;;;;;;;;21.64;55.28;101989.47;5029709;28;657;-74
2021/07/21 02:21:05;;;;;;;;;;;;;;;21.64;55.13;101986.75;4997880;28;994;-74
2021/07/21 02:23:31;;;;;;;;;;;;;;;21.63;55.12;101976.06;5003156;28;1915;-74
2021/07/21 02:25:56;;;;;;;;;;;;;;;21.62;55.20;101983.34;5032164;28;2218;-74
2021/07/21 02:28:21;;;;;;;;;;;;;;;21.62;54.92;101986.03;5017467;28;1001;-75
2021/07/21 02:30:46;;;;;;;;;;;;;;;21.60;55.24;101979.03;5017345;28;1017;-75
2021/07/21 02:33:12;;;;;;;;;;;;;;;21.59;55.14;101978.19;5032503;28;1347;-75
2021/07/21 02:35:37;;;;;;;;;;;;;;;21.58;55.10;101978.31;5029129;28;2003;-75
2021/07/21 02:38:02;;;;;;;;;;;;;;;21.59;55.21;101980.03;5017251;28;800;-75
2021/07/21 02:40:27;;;;;;;;;;;;;;;21.61;55.02;101981.63;5017392;28;866;-75
2021/07/21 02:42:52;;;;;;;;;;;;;;;21.58;55.31;101975.63;5017333;28;780;-75
2021/07/21 02:45:17;;;;;;;;;;;;;;;21.55;55.09;101976.75;5016085;28;1754;-75
2021/07/21 02:47:42;;;;;;;;;;;;;;;21.54;55.04;101980.47;5032691;28;902;-75
2021/07/21 02:50:07;;;;;;;;;;;;;;;21.52;55.10;101971.59;5017121;28;788;-75
2021/07/21 02:52:32;;;;;;;;;;;;;;;21.51;55.53;101977.19;5017007;28;776;-75
2021/07/21 02:54:58;;;;;;;;;;;;;;;21.50;55.13;101970.88;5002670;28;1961;-75
2021/07/21 02:57:23;;;;;;;;;;;;;;;21.51;54.85;101982.59;4998085;28;1368;-75
2021/07/21 02:59:48;;;;;;;;;;;;;;;21.51;54.91;101978.03;4997394;28;796;-75
2021/07/21 03:02:13;;;;;;;;;;;;;;;21.49;55.61;101977.34;5028776;28;1033;-75
2021/07/21 03:04:38;;;;;;;;;;;;;;;21.48;55.64;101981.91;4997409;28;1001;-75
2021/07/21 03:07:03;;;;;;;;;;;;;;;21.47;55.04;101972.06;5041894;28;1906;-76
2021/07/21 03:09:28;;;;;;;;;;;;;;;21.46;55.90;101980.34;5031849;28;1288;-76
2021/07/21 03:11:53;;;;;;;;;;;;;;;21.44;55.37;101983.19;5016534;28;1255;-75
2021/07/21 03:14:18;;;;;;;;;;;;;;;21.43;55.76;101975.19;5016549;28;1910;-75
2021/07/21 03:16:47;;;;;;;;;;;;;;;21.42;55.95;101987.03;5016494;28;1049;-75
2021/07/21 03:19:12;;;;;;;;;;;;;;;21.42;55.68;101979.75;5000552;28;1919;-75
2021/07/21 03:21:37;;;;;;;;;;;;;;;21.41;55.36;101990.75;4997030;28;1624;-75
2021/07/21 03:24:02;;;;;;;;;;;;;;;21.40;55.62;101995.31;4996927;28;914;-75
2021/07/21 03:26:27;;;;;;;;;;;;;;;21.40;56.13;101991.75;4996861;28;851;-75
2021/07/21 03:28:52;;;;;;;;;;;;;;;21.40;55.51;101991.75;4996904;28;867;-75
2021/07/21 03:31:18;;;;;;;;;;;;;;;21.37;55.63;101995.59;5012399;28;1854;-75
2021/07/21 03:33:44;;;;;;;;;;;;;;;21.37;55.85;101998.31;5016231;28;963;-75
2021/07/21 03:36:09;;;;;;;;;;;;;;;21.34;55.98;102000.44;5016211;28;1897;-76
2021/07/21 03:38:34;;;;;;;;;;;;;;;21.36;55.88;102001.16;5016102;28;807;-76
2021/07/21 03:40:59;;;;;;;;;;;;;;;21.34;56.04;102000.44;5022150;28;1905;-76
2021/07/21 03:43:24;;;;;;;;;;;;;;;21.33;56.08;101999.56;5048088;28;1596;-75
2021/07/21 03:45:49;;;;;;;;;;;;;;;21.33;56.08;101998.72;5015850;28;911;-75
2021/07/21 03:48:15;;;;;;;;;;;;;;;21.33;56.26;102001.44;5047728;28;903;-75
2021/07/21 03:50:40;;;;;;;;;;;;;;;21.30;55.94;102004.44;5015969;28;792;-75
2021/07/21 03:53:05;;;;;;;;;;;;;;;21.29;56.07;101997.31;5047070;28;1870;-74
2021/07/21 03:55:30;;;;;;;;;;;;;;;21.27;55.84;102002.00;5030767;28;1947;-75
2021/07/21 03:57:55;;;;;;;;;;;;;;;21.27;56.26;101999.31;5015632;28;1323;-74
2021/07/21 04:00:20;;;;;;;;;;;;;;;21.26;55.61;102008.44;5015327;28;776;-73
2021/07/21 04:02:45;;;;;;;;;;;;;;;21.25;55.94;102006.72;5015503;28;1061;-73
2021/07/21 04:05:13;;;;;;;;;;;;;;;21.25;55.53;102010.28;5000848;28;1860;-74
2021/07/21 04:07:38;;;;;;;;;;;;;;;21.27;56.24;102004.72;4996668;28;787;-74
2021/07/21 04:10:03;;;;;;;;;;;;;;;21.26;56.31;102005.72;5027485;28;1184;-74
2021/07/21 04:12:28;;;;;;;;;;;;;;;21.25;55.92;102009.44;4996021;28;906;-74
2021/07/21 04:14:54;;;;;;;;;;;;;;;21.22;55.87;102001.56;5027296;28;1927;-73
2021/07/21 04:17:19;;;;;;;;;;;;;;;21.24;55.87;102010.44;5010211;28;1856;-74
2021/07/21 04:19:44;;;;;;;;;;;;;;;21.21;56.33;102005.28;5015747;28;868;-74
2021/07/21 04:22:09;;;;;;;;;;;;;;;21.21;56.25;102002.56;5015534;28;993;-74
2021/07/21 04:24:34;;;;;;;;;;;;;;;21.22;55.44;102009.72;5030584;28;804;-74
2021/07/21 04:26:59;;;;;;;;;;;;;;;21.21;55.68;102005.28;5015514;28;890;-74
2021/07/21 04:29:24;;;;;;;;;;;;;;;21.20;56.31;102009.00;4997209;28;1576;-74
2021/07/21 04:31:49;;;;;;;;;;;;;;;21.19;56.04;102004.53;4995640;28;835;-74
2021/07/21 04:34:14;;;;;;;;;;;;;;;21.16;56.04;102002.94;5026970;28;1894;-74
2021/07/21 04:36:40;;;;;;;;;;;;;;;21.17;55.68;102009.22;5003952;28;2032;-74
2021/07/21 04:39:05;;;;;;;;;;;;;;;21.17;55.72;102010.09;5015093;28;1041;-74
2021/07/21 04:41:30;;;;;;;;;;;;;;;21.17;55.79;102020.06;5030357;28;906;-74
2021/07/21 04:43:55;;;;;;;;;;;;;;;21.15;56.14;102021.06;5015129;28;788;-74
2021/07/21 04:46:20;;;;;;;;;;;;;;;21.15;56.54;102023.78;5009300;28;1847;-74
2021/07/21 04:48:45;;;;;;;;;;;;;;;21.12;56.23;102018.66;5027170;28;1240;-75
2021/07/21 04:51:11;;;;;;;;;;;;;;;21.11;56.51;102027.78;4995554;28;994;-74
2021/07/21 04:53:36;;;;;;;;;;;;;;;21.10;56.43;102031.50;4995521;28;780;-74
2021/07/21 04:56:01;;;;;;;;;;;;;;;21.10;56.81;102028.78;5026916;28;1898;-74
2021/07/21 04:58:26;;;;;;;;;;;;;;;21.09;56.75;102027.06;5003063;28;1807;-74
2021/07/21 05:00:51;;;;;;;;;;;;;;;21.07;56.79;102026.34;5012341;28;1715;-73
2021/07/21 05:03:16;;;;;;;;;;;;;;;21.07;56.10;102025.50;5014500;28;858;-74
2021/07/21 05:05:42;;;;;;;;;;;;;;;21.07;56.49;102039.91;5029100;28;910;-75
2021/07/21 05:08:07;;;;;;;;;;;;;;;21.06;56.14;102037.31;5014001;28;1325;-75
2021/07/21 05:10:33;;;;;;;;;;;;;;;21.04;56.68;102037.47;5042535;28;1886;-75
2021/07/21 05:12:58;;;;;;;;;;;;;;;21.03;56.87;102037.59;5014719;28;1395;-74
2021/07/21 05:15:24;;;;;;;;;;;;;;;21.03;56.77;102034.88;5017591;28;1910;-73
2021/07/21 05:17:49;;;;;;;;;;;;;;;21.03;57.00;102034.88;5016672;28;1895;-73
2021/07/21 05:20:14;;;;;;;;;;;;;;;21.04;56.74;102045.59;5017548;28;1009;-74
2021/07/21 05:22:45;;;;;;;;;;;;;;;21.03;56.87;102043.88;5017516;28;958;-73
2021/07/21 05:25:10;;;;;;;;;;;;;;;21.13;59.32;102039.34;5017547;28;839;-73
2021/07/21 05:27:35;;;;;;;;;;;;;;;21.19;59.42;102045.19;5016604;28;1323;-73
2021/07/21 05:30:00;;;;;;;;;;;;;;;21.21;59.15;102049.50;5015554;28;1974;-73
2021/07/21 05:32:25;;;;;;;;;;;;;;;21.21;59.23;102051.38;5014538;28;1683;-73
2021/07/21 05:34:51;;;;;;;;;;;;;;;21.25;58.39;102061.81;5017681;28;1957;-69
2021/07/21 05:37:16;;;;;;;;;;;;;;;21.26;58.25;102057.25;5048781;28;1737;-70
2021/07/21 05:39:41;;;;;;;;;;;;;;;21.24;58.34;102054.66;5016298;28;1721;-70
2021/07/21 05:42:06;;;;;;;;;;;;;;;21.25;58.79;102058.22;5015526;28;2058;-69
2021/07/21 05:44:31;;;;;;;;;;;;;;;21.25;57.82;102056.38;5016106;28;1611;-69
2021/07/21 05:46:56;;;;;;;;;;;;;;;21.25;58.22;102048.25;5015594;28;1474;-70
2021/07/21 05:49:22;;;;;;;;;;;;;;;21.28;57.48;102057.97;5015740;28;1815;-70
2021/07/21 05:51:47;;;;;;;;;;;;;;;21.27;57.64;102054.41;5016228;28;1379;-70
2021/07/21 05:54:14;;;;;;;;;;;;;;;21.27;57.83;102059.81;5016639;28;1898;-70
2021/07/21 05:56:39;;;;;;;;;;;;;;;21.27;58.00;102064.38;4995880;28;1036090;-73
2021/07/21 05:59:05;;;;;;;;;;;;;;;21.25;58.29;102053.66;5017672;28;1799;-70
2021/07/21 06:01:30;;;;;;;;;;;;;;;21.25;58.26;102060.94;5015645;28;1709;-69
2021/07/21 06:03:55;;;;;;;;;;;;;;;21.25;58.05;102063.66;5017895;28;918;-69
2021/07/21 06:06:21;;;;;;;;;;;;;;;21.19;58.75;102058.75;5049704;28;1538;-69
2021/07/21 06:08:46;;;;;;;;;;;;;;;21.27;57.78;102065.25;5017156;28;1668;-69
2021/07/21 06:11:11;;;;;;;;;;;;;;;21.30;57.83;102069.53;5018017;28;1517;-72
2021/07/21 06:13:36;;;;;;;;;;;;;;;21.32;57.80;102062.94;5015663;28;1635;-73
2021/07/21 06:16:07;;;;;;;;;;;;;;;21.31;57.94;102073.97;5015236;28;1906;-73
2021/07/21 06:18:33;;;;;;;;;;;;;;;21.31;57.38;102071.25;5007684;28;1526;-74
2021/07/21 06:20:58;;;;;;;;;;;;;;;21.35;57.38;102078.09;5016531;28;1672;-73
2021/07/21 06:23:23;;;;;;;;;;;;;;;21.37;57.21;102071.53;5005102;28;1991;-70
2021/07/21 06:25:48;;;;;;;;;;;;;;;21.41;56.59;102077.53;5048183;28;1443;-70
2021/07/21 06:28:13;;;;;;;;;;;;;;;21.39;56.18;102074.09;5013129;28;1479;-70
2021/07/21 06:30:38;;;;;;;;;;;;;;;21.38;56.22;102077.81;5016905;28;1284;-70
2021/07/21 06:33:03;;;;;;;;;;;;;;;21.42;55.68;102087.38;5017019;28;1351;-70
2021/07/21 06:35:28;;;;;;;;;;;;;;;21.42;55.41;102082.81;5017171;28;1955;-69
2021/07/21 06:37:53;;;;;;;;;;;;;;;21.45;55.69;102087.97;5048762;28;1916;-70
2021/07/21 06:40:20;;;;;;;;;;;;;;;21.46;54.98;102088.84;5018706;28;1426;-71
2021/07/21 06:42:45;;;;;;;;;;;;;;;21.45;55.57;102093.41;5016089;28;1795;-70
2021/07/21 06:45:10;;;;;;;;;;;;;;;21.46;55.26;102091.53;5017348;28;1313;-70
2021/07/21 06:47:35;;;;;;;;;;;;;;;21.44;54.85;102094.38;5017065;28;1551;-71
2021/07/21 06:50:00;;;;;;;;;;;;;;;21.46;55.46;102097.81;5031771;28;1407;-70
2021/07/21 06:52:25;;;;;;;;;;;;;;;21.49;54.84;102102.13;5018959;28;1294;-70
2021/07/21 06:54:50;;;;;;;;;;;;;;;21.49;54.69;102102.13;5042536;28;1953;-70
2021/07/21 06:57:15;;;;;;;;;;;;;;;21.51;54.56;102099.22;5016721;28;1359;-70
2021/07/21 06:59:40;;;;;;;;;;;;;;;21.51;54.03;102101.94;5017547;28;1721;-69
2021/07/21 07:02:05;;;;;;;;;;;;;;;21.54;54.41;102109.81;5017617;28;1380;-70
2021/07/21 07:04:31;;;;;;;;;;;;;;;21.57;54.26;102104.97;5032799;28;1240;-71
2021/07/21 07:06:56;;;;;;;;;;;;;;;21.59;53.51;102102.97;5016526;28;1579;-72
2021/07/21 07:09:21;;;;;;;;;;;;;;;21.63;53.38;102112.56;5008313;28;1462;-72
2021/07/21 07:11:46;;;;;;;;;;;;;;;21.60;53.27;102107.41;5013866;28;1624;-71
2021/07/21 07:14:11;;;;;;;;;;;;;;;21.62;52.84;102118.13;5016908;28;1350;-70
2021/07/21 07:16:36;;;;;;;;;;;;;;;21.63;52.98;102109.84;5024515;28;1910;-71
2021/07/21 07:19:01;;;;;;;;;;;;;;;21.67;53.16;102122.13;5026578;28;1358;-71
2021/07/21 07:21:29;;;;;;;;;;;;;;;21.66;53.10;102112.28;5022475;28;1499;-71
2021/07/21 07:23:54;;;;;;;;;;;;;;;21.68;53.02;102114.81;5026269;28;1244;-70
2021/07/21 07:26:19;;;;;;;;;;;;;;;21.72;53.16;102121.69;5029190;28;1319;-71
2021/07/21 07:28:44;;;;;;;;;;;;;;;21.69;52.95;102122.81;5024310;28;1761;-70
2021/07/21 07:31:09;;;;;;;;;;;;;;;21.71;53.00;102119.97;5026522;28;1412;-72
2021/07/21 07:33:34;;;;;;;;;;;;;;;21.72;53.12;102124.41;5030988;28;1338;-70
2021/07/21 07:35:59;;;;;;;;;;;;;;;21.76;53.39;102121.28;5035028;28;1956;-72
2021/07/21 07:38:24;;;;;;;;;;;;;;;21.79;52.74;102122.84;5036047;28;1056;-70
2021/07/21 07:40:49;;;;;;;;;;;;;;;21.81;53.19;102120.84;5034425;28;1894;-71
2021/07/21 07:43:15;;;;;;;;;;;;;;;21.83;53.31;102122.44;5015495;28;1715;-72
2021/07/21 07:45:40;;;;;;;;;;;;;;;21.85;53.03;102114.16;5015966;28;883;-72
2021/07/21 07:48:05;;;;;;;;;;;;;;;21.86;53.53;102123.13;5031103;28;1376;-73
2021/07/21 07:50:30;;;;;;;;;;;;;;;21.83;52.85;102119.72;5024057;28;1825;-74
2021/07/21 07:52:55;;;;;;;;;;;;;;;21.79;52.22;102125.56;5048002;28;1190;-74
2021/07/21 07:55:20;;;;;;;;;;;;;;;21.81;52.71;102127.16;5047758;28;1949;-72
2021/07/21 07:57:45;;;;;;;;;;;;;;;21.83;52.89;102133.28;5015796;28;1126;-71
2021/07/21 08:00:10;;;;;;;;;;;;;;;21.80;52.29;102121.84;5015068;28;1994;-72
2021/07/21 08:02:35;;;;;;;;;;;;;;;21.86;52.77;102123.13;5030918;28;1437;-74
2021/07/21 08:05:00;;;;;;;;;;;;;;;21.90;53.00;102121.84;5015773;28;937;-72
2021/07/21 08:07:29;;;;;;;;;;;;;;;21.80;52.46;102128.16;5015713;28;854;-73
2021/07/21 08:09:54;;;;;;;;;;;;;;;21.66;51.74;102125.84;5016059;28;800;-73
2021/07/21 08:12:19;;;;;;;;;;;;;;;21.59;51.35;102127.38;5007663;28;2215;-71
2021/07/21 08:14:44;;;;;;;;;;;;;;;21.61;50.66;102129.97;4996010;28;1902;-71
2021/07/21 08:17:09;;;;;;;;;;;;;;;21.57;50.55;102123.97;4996148;28;835;-72
2021/07/21 08:19:36;;;;;;;;;;;;;;;21.56;50.63;102132.22;4996178;28;1049;-72
2021/07/21 08:22:01;;;;;;;;;;;;;;;21.59;50.58;102124.69;5010907;28;1958;-72
2021/07/21 08:24:26;;;;;;;;;;;;;;;21.70;51.08;102120.97;5015365;28;1057;-72
2021/07/21 08:26:51;;;;;;;;;;;;;;;21.85;51.45;102122.31;5015527;28;1150;-71
2021/07/21 08:29:17;;;;;;;;;;;;;;;21.83;51.15;102119.72;5024217;28;1428;-73
2021/07/21 08:31:42;;;;;;;;;;;;;;;21.81;50.92;102124.44;5014028;28;1805;-73
2021/07/21 08:34:10;;;;;;;;;;;;;;;21.85;51.26;102125.00;5020515;28;1466;-72
2021/07/21 08:36:35;;;;;;;;;;;;;;;21.94;51.46;102116.00;5016368;28;1898;-72
2021/07/21 08:39:00;;;;;;;;;;;;;;;21.82;50.86;102122.56;5018344;28;1608;-72
2021/07/21 08:41:28;;;;;;;;;;;;;;;21.82;51.28;102131.56;5044226;28;1333;-71
2021/07/21 08:43:53;;;;;;;;;;;;;;;21.86;51.19;102126.69;5023789;28;1502;-70
2021/07/21 08:46:18;;;;;;;;;;;;;;;21.94;51.02;102124.16;5025669;28;1555;-69
2021/07/21 08:48:43;;;;;;;;;;;;;;;21.92;51.27;102119.84;5032077;28;1298;-70
2021/07/21 08:51:08;;;;;;;;;;;;;;;21.87;50.68;102122.97;5029112;28;1410;-71
2021/07/21 08:53:33;;;;;;;;;;;;;;;21.82;50.97;102131.56;5034510;28;1288;-70
2021/07/21 08:55:58;;;;;;;;;;;;;;;21.93;51.27;102124.28;5040554;28;1963;-71
2021/07/21 08:58:24;;;;;;;;;;;;;;;22.03;50.76;102133.34;5023643;28;1373;-71
2021/07/21 09:00:49;;;;;;;;;;;;;;;21.98;50.58;102130.16;5027168;28;1420;-71
2021/07/21 09:03:14;;;;;;;;;;;;;;;21.94;50.52;102128.72;5025912;28;1423;-71
2021/07/21 09:05:39;;;;;;;;;;;;;;;21.98;50.66;102122.00;5022894;28;1480;-71
2021/07/21 09:08:04;;;;;;;;;;;;;;;21.95;50.39;102130.44;5026650;28;1527;-71
2021/07/21 09:10:29;;;;;;;;;;;;;;;21.96;50.22;102127.56;5021353;28;1134;-72
2021/07/21 09:12:54;;;;;;;;;;;;;;;21.98;50.49;102127.44;5030885;28;1254;-73
2021/07/21 09:15:19;;;;;;;;;;;;;;;22.03;50.84;102131.47;5017937;28;1922;-73
2021/07/21 09:17:44;;;;;;;;;;;;;;;22.10;50.92;102131.75;5042721;28;1496;-71
2021/07/21 09:20:10;;;;;;;;;;;;;;;22.01;50.24;102129.91;5024383;28;1886;-71
2021/07/21 09:22:36;;;;;;;;;;;;;;;21.97;50.08;102128.44;5046017;28;1912;-70
2021/07/21 09:25:01;;;;;;;;;;;;;;;22.02;49.88;102128.91;5039547;28;1554;-72
2021/07/21 09:27:26;;;;;;;;;;;;;;;22.00;50.01;102130.91;5041385;28;1432;-73
2021/07/21 09:29:51;;;;;;;;;;;;;;;21.95;49.90;102125.88;5023499;28;1505;-72
2021/07/21 09:32:16;;;;;;;;;;;;;;;21.95;50.18;102128.56;5018270;28;1519;-70
2021/07/21 09:34:42;;;;;;;;;;;;;;;21.94;49.86;102126.84;5028448;28;1902;-70
2021/07/21 09:37:07;;;;;;;;;;;;;;;21.98;50.61;102127.44;5018407;28;1299;-69
2021/07/21 09:39:32;;;;;;;;;;;;;;;22.07;50.86;102130.16;5030498;28;1640;-70
2021/07/21 09:41:57;;;;;;;;;;;;;;;22.16;50.19;102134.75;5028033;28;1285;-69
2021/07/21 09:44:22;;;;;;;;;;;;;;;22.16;50.70;102132.03;5023742;28;1303;-69
2021/07/21 09:46:47;;;;;;;;;;;;;;;22.17;50.50;102131.03;5021236;28;1302;-70
2021/07/21 09:49:12;;;;;;;;;;;;;;;22.15;50.05;102132.19;5042250;28;1551;-72
2021/07/21 09:51:38;;;;;;;;;;;;;;;22.18;50.40;102131.91;5043003;28;1454;-71
2021/07/21 09:54:03;;;;;;;;;;;;;;;22.17;50.27;102130.19;5020991;28;1412;-71
2021/07/21 09:56:28;;;;;;;;;;;;;;;22.16;50.06;102123.03;5023565;28;1894;-70
2021/07/21 09:58:54;;;;;;;;;;;;;;;22.18;50.39;102121.03;5017065;28;1317;-70
2021/07/21 10:01:19;;;;;;;;;;;;;;;22.20;49.88;102115.47;5018077;28;1648;-71
2021/07/21 10:03:44;;;;;;;;;;;;;;;22.19;50.39;102127.34;5035382;28;1622;-72
2021/07/21 10:06:09;;;;;;;;;;;;;;;22.14;49.71;102122.31;5022698;28;1516;-72
2021/07/21 10:08:34;;;;;;;;;;;;;;;22.15;49.71;102122.19;5025994;28;1497;-72
2021/07/21 10:10:59;;;;;;;;;;;;;;;22.12;49.94;102124.31;5026461;28;1576;-72
2021/07/21 10:13:24;;;;;;;;;;;;;;;22.13;49.93;102118.75;5030686;28;1509;-72
2021/07/21 10:15:54;;;;;;;;;;;;;;;22.12;49.86;102121.59;5028878;28;1967;-73
2021/07/21 10:18:20;;;;;;;;;;;;;;;22.13;50.38;102117.91;5027974;28;1516;-72
2021/07/21 10:20:45;;;;;;;;;;;;;;;22.13;49.76;102123.31;5026121;28;1532;-72
2021/07/21 10:23:10;;;;;;;;;;;;;;;22.12;49.70;102122.47;5027569;28;1525;-72
2021/07/21 10:25:35;;;;;;;;;;;;;;;22.15;49.45;102124.91;5027343;28;1508;-72
2021/07/21 10:28:00;;;;;;;;;;;;;;;22.12;49.49;102113.47;5025727;28;1524;-72
2021/07/21 10:30:25;;;;;;;;;;;;;;;22.15;49.76;102116.75;5025950;28;2004;-72
2021/07/21 10:32:50;;;;;;;;;;;;;;;22.14;48.81;102125.91;5026653;28;1386;-73
2021/07/21 10:35:16;;;;;;;;;;;;;;;22.16;49.26;102120.31;5026134;28;1898;-71
2021/07/21 10:37:41;;;;;;;;;;;;;;;22.19;49.62;102109.19;5027668;28;1481;-72
2021/07/21 10:40:06;;;;;;;;;;;;;;;22.18;49.20;102115.63;5022392;28;1615;-72
2021/07/21 10:42:31;;;;;;;;;;;;;;;22.16;48.82;102107.59;5024403;28;1927;-72
2021/07/21 10:44:56;;;;;;;;;;;;;;;22.12;48.62;102113.47;5019429;28;1632;-72
2021/07/21 10:47:23;;;;;;;;;;;;;;;22.14;48.64;102112.31;5016859;28;1594;-74
2021/07/21 10:49:52;;;;;;;;;;;;;;;22.20;48.33;102112.75;5002551;28;2187;-73
2021/07/21 11:00:03;;;;;;;;;;;;;;;22.26;48.88;102113.00;5012935;28;1834;-71
2021/07/21 11:02:28;;;;;;;;;;;;;;;22.28;48.89;102105.59;5032081;28;1307;-72
2021/07/21 11:04:53;;;;;;;;;;;;;;;22.34;48.70;102107.72;5031603;28;1666;-70
2021/07/21 11:07:18;;;;;;;;;;;;;;;22.35;48.49;102105.88;5020715;28;1421;-73
2021/07/21 11:09:43;;;;;;;;;;;;;;;22.41;48.40;102097.97;5015672;28;1839;-71
2021/07/21 11:12:08;;;;;;;;;;;;;;;22.45;48.37;102101.25;5016879;28;1420;-70
2021/07/21 11:14:34;;;;;;;;;;;;;;;22.38;49.91;102094.72;5032513;28;1919;-71
2021/07/21 11:16:59;;;;;;;;;;;;;;;22.39;50.27;102096.44;5016925;28;1278;-71
2021/07/21 11:19:24;;;;;;;;;;;;;;;22.44;49.01;102099.53;5014717;28;1484;-69
2021/07/21 11:21:49;;;;;;;;;;;;;;;22.46;48.60;102092.09;5016919;28;1421;-73
2021/07/21 11:24:14;;;;;;;;;;;;;;;22.45;48.68;102107.56;5016984;28;1270;-73
2021/07/21 11:26:39;;;;;;;;;;;;;;;22.48;48.58;102106.41;5015758;28;2858;-75
2021/07/21 11:29:04;;;;;;;;;;;;;;;22.42;48.93;102106.97;5017755;28;1722;-73
2021/07/21 11:31:29;;;;;;;;;;;;;;;22.37;50.13;102104.72;5036499;28;807;-71
2021/07/21 11:33:55;;;;;;;;;;;;;;;22.50;49.13;102094.41;5036159;28;1001;-72
2021/07/21 11:36:20;;;;;;;;;;;;;;;22.60;48.93;102088.91;5035968;28;1955;-73
2021/07/21 11:38:45;;;;;;;;;;;;;;;22.71;48.49;102098.78;5010089;28;1639;-72
2021/07/21 11:41:10;;;;;;;;;;;;;;;22.75;48.19;102089.31;4996509;28;2048;-72
2021/07/21 11:43:35;;;;;;;;;;;;;;;22.75;48.06;102092.03;5028079;28;1353;-69
2021/07/21 11:46:00;;;;;;;;;;;;;;;22.77;48.40;102093.63;4996531;28;918;-69
2021/07/21 11:48:25;;;;;;;;;;;;;;;22.82;48.10;102090.47;5008540;28;1905;-72
2021/07/21 11:50:50;;;;;;;;;;;;;;;22.79;48.10;102085.31;5016121;28;911;-71
2021/07/21 11:53:15;;;;;;;;;;;;;;;22.72;49.11;102086.91;5015848;28;815;-71
2021/07/21 11:55:41;;;;;;;;;;;;;;;22.60;50.05;102088.91;5016153;28;1898;-70
2021/07/21 11:58:06;;;;;;;;;;;;;;;22.52;50.27;102081.53;5014830;28;1457;-70
2021/07/21 12:00:31;;;;;;;;;;;;;;;22.57;49.33;102077.50;5016121;28;1029;-73
2021/07/21 12:02:56;;;;;;;;;;;;;;;22.73;48.80;102088.63;5015767;28;946;-72
2021/07/21 12:05:21;;;;;;;;;;;;;;;22.62;49.43;102077.91;5014784;28;879;-73
2021/07/21 12:07:47;;;;;;;;;;;;;;;22.61;48.81;102077.03;5014377;28;1401;-71
2021/07/21 12:10:12;;;;;;;;;;;;;;;22.89;48.27;102078.00;5004622;28;1798;-72
2021/07/21 12:12:37;;;;;;;;;;;;;;;22.84;48.69;102074.84;5042027;28;1859;-72
2021/07/21 12:15:02;;;;;;;;;;;;;;;23.06;48.27;102079.91;5015705;28;1973;-71
2021/07/21 12:17:27;;;;;;;;;;;;;;;23.10;47.58;102080.47;5031002;28;1268;-71
2021/07/21 12:19:52;;;;;;;;;;;;;;;23.18;47.38;102083.28;5030741;28;1469;-71
2021/07/21 12:22:18;;;;;;;;;;;;;;;23.15;47.68;102083.56;5003660;28;1882;-74
2021/07/21 12:24:43;;;;;;;;;;;;;;;23.15;47.54;102079.00;5027215;28;1301;-74
2021/07/21 12:27:08;;;;;;;;;;;;;;;23.28;47.12;102080.53;4995723;28;1029;-73
2021/07/21 12:29:33;;;;;;;;;;;;;;;23.24;47.80;102076.38;4997833;28;1880;-74
2021/07/21 12:31:58;;;;;;;;;;;;;;;23.15;47.79;102084.44;5030640;28;922;-73
2021/07/21 12:34:23;;;;;;;;;;;;;;;22.92;49.32;102077.69;5015558;28;895;-72
2021/07/21 12:36:48;;;;;;;;;;;;;;;22.88;49.52;102087.16;5014991;28;1969;-71
2021/07/21 12:39:14;;;;;;;;;;;;;;;22.85;49.93;102073.84;5015128;28;1391;-70
2021/07/21 12:41:39;;;;;;;;;;;;;;;22.99;48.65;102073.34;5014285;28;1835;-72
2021/07/21 12:44:04;;;;;;;;;;;;;;;23.22;48.43;102079.25;5015676;28;1484;-71
2021/07/21 12:46:29;;;;;;;;;;;;;;;23.36;47.67;102086.03;5014611;28;1297;-70